Falls Of Rough, KY (40119)

3:26 PM CDT on May 24, 2015 (GMT -0500)
Eveleigh Road | | Change Station
CLOSE
Current Station
Personal Weather Station
Location: Leitchfield, KY
Elevation: 670 ft
Nearby Weather Stations

Elev 670 ft 37.58 °N, 86.34 °W | Updated 9 seconds ago

Mostly Cloudy
Mostly Cloudy
88.0 °F
Feels Like 93 °F
N
3.8
Wind Variable Wind from South
Gusts 7.6 mph

Today
High -- | Low -- °F
--% Chance of Precip.
Yesterday
High -- | Low -- °F
Precip. -- in
5:30 AM 7:55 PM
Waxing Crescent, 42% visible
Pressure 30.15 in
Visibility 10.0 miles
Clouds Scattered Clouds 5000 ft
Scattered Clouds 6500 ft
Heat Index 93 °F
Dew Point 69 °F
Humidity 54%
Rainfall 0.00 in
Snow Depth Not available.
UV 7 out of 12
Pollen 8.00 out of 12
Air Quality Not available.
Flu Activity Sporadic
METAR KFTK 241958Z AUTO 16012KT 10SM SCT050 SCT065 29/16 A3015 RMK AO2 SLP208 T02870163

More Conditions Fewer Conditions

Pressure 30.15 in
Visibility 10.0 miles
Clouds Scattered Clouds 5000 ft
Scattered Clouds 6500 ft
Heat Index 93 °F
Dew Point 69 °F
Humidity 54%
Rainfall 0.00 in
Snow Depth Not available.
UV 7 out of 12
Pollen 8.00 out of 12
Air Quality Not available.
Flu Activity Sporadic
METAR KFTK 241958Z AUTO 16012KT 10SM SCT050 SCT065 29/16 A3015 RMK AO2 SLP208 T02870163

More Conditions Fewer Conditions

10-Day Weather Forecast

Almanac

Astronomy

May. 24, 2015 Rise Set
Actual Time
Civil Twilight
Nautical Twilight
Astronomical Twilight
Moon
Length of Visible Light
Length of Day
Tomorrow will be .
, % of the Moon is Illuminated

Today's Extremes

State Highs State Lows

Community

WunderPhotos

Upload Photos

1,823,855 photos uploaded!

WunderBlogs® & News

Nearby

Air Quality

  Air Quality AQ Index Pollutant
Not available.

Snow Depth

Station Depth Elevation

Earthquake Activity

City Distance Mag. Time & Date
Minimum magnitude displayed is 2.5.

Coastal Water Temperatures

Place Temperature

Stations

Nearby Weather Stations

Station Location Temp. Windchill Dew Point Humidity Wind Precip. Elev Updated Type